sensor_id;sensor_type;location;lat;lon;timestamp;temperature;humidity
39503;DHT22;26970;49.900;10.774;2022-08-19T00:00:09;19.50;99.90
39503;DHT22;26970;49.900;10.774;2022-08-19T00:02:35;19.50;99.90
39503;DHT22;26970;49.900;10.774;2022-08-19T00:05:01;19.40;99.90
39503;DHT22;26970;49.900;10.774;2022-08-19T00:07:27;19.30;99.90
39503;DHT22;26970;49.900;10.774;2022-08-19T00:09:53;19.30;99.90
39503;DHT22;26970;49.900;10.774;2022-08-19T00:12:19;19.30;99.90
39503;DHT22;26970;49.900;10.774;2022-08-19T00:14:45;19.40;99.90
39503;DHT22;26970;49.900;10.774;2022-08-19T00:17:11;19.40;99.90
39503;DHT22;26970;49.900;10.774;2022-08-19T00:19:37;19.30;99.90
39503;DHT22;26970;49.900;10.774;2022-08-19T00:22:03;19.30;99.90
39503;DHT22;26970;49.900;10.774;2022-08-19T00:24:30;19.20;99.90
39503;DHT22;26970;49.900;10.774;2022-08-19T00:26:56;19.20;99.90
39503;DHT22;26970;49.900;10.774;2022-08-19T00:29:24;19.20;99.90
39503;DHT22;26970;49.900;10.774;2022-08-19T00:31:51;19.20;99.90
39503;DHT22;26970;49.900;10.774;2022-08-19T00:34:20;19.20;99.90
39503;DHT22;26970;49.900;10.774;2022-08-19T00:36:46;19.10;99.90
39503;DHT22;26970;49.900;10.774;2022-08-19T00:39:12;19.00;99.90
39503;DHT22;26970;49.900;10.774;2022-08-19T00:41:38;19.00;99.90
39503;DHT22;26970;49.900;10.774;2022-08-19T00:44:14;18.90;99.90
39503;DHT22;26970;49.900;10.774;2022-08-19T00:46:42;18.90;99.90
39503;DHT22;26970;49.900;10.774;2022-08-19T00:49:14;19.00;99.90
39503;DHT22;26970;49.900;10.774;2022-08-19T00:51:41;19.00;99.90
39503;DHT22;26970;49.900;10.774;2022-08-19T00:54:07;18.90;99.90
39503;DHT22;26970;49.900;10.774;2022-08-19T00:56:35;18.80;99.90
39503;DHT22;26970;49.900;10.774;2022-08-19T00:59:01;18.90;99.90
39503;DHT22;26970;49.900;10.774;2022-08-19T01:01:27;18.90;99.90
39503;DHT22;26970;49.900;10.774;2022-08-19T01:03:53;18.90;99.90
39503;DHT22;26970;49.900;10.774;2022-08-19T01:06:19;18.90;99.90
39503;DHT22;26970;49.900;10.774;2022-08-19T01:08:44;18.80;99.90
39503;DHT22;26970;49.900;10.774;2022-08-19T01:11:12;18.60;99.90
39503;DHT22;26970;49.900;10.774;2022-08-19T01:13:38;18.80;99.90
39503;DHT22;26970;49.900;10.774;2022-08-19T01:16:11;18.80;99.90
39503;DHT22;26970;49.900;10.774;2022-08-19T01:18:41;18.80;99.90
39503;DHT22;26970;49.900;10.774;2022-08-19T01:21:43;18.80;99.90
39503;DHT22;26970;49.900;10.774;2022-08-19T01:24:11;18.80;99.90
39503;DHT22;26970;49.900;10.774;2022-08-19T01:26:42;18.70;99.90
39503;DHT22;26970;49.900;10.774;2022-08-19T01:32:16;18.70;99.90
39503;DHT22;26970;49.900;10.774;2022-08-19T01:34:42;18.80;99.90
39503;DHT22;26970;49.900;10.774;2022-08-19T01:37:13;18.80;99.90
39503;DHT22;26970;49.900;10.774;2022-08-19T01:39:40;19.00;99.90
39503;DHT22;26970;49.900;10.774;2022-08-19T01:42:07;19.20;99.90
39503;DHT22;26970;49.900;10.774;2022-08-19T01:44:36;19.40;99.90
39503;DHT22;26970;49.900;10.774;2022-08-19T01:47:03;19.60;99.90
39503;DHT22;26970;49.900;10.774;2022-08-19T01:49:29;19.70;99.90
39503;DHT22;26970;49.900;10.774;2022-08-19T01:51:55;19.80;99.90
39503;DHT22;26970;49.900;10.774;2022-08-19T01:54:22;19.70;99.90
39503;DHT22;26970;49.900;10.774;2022-08-19T01:56:48;19.60;99.90
39503;DHT22;26970;49.900;10.774;2022-08-19T01:59:17;19.60;99.90
39503;DHT22;26970;49.900;10.774;2022-08-19T02:01:44;19.60;99.90
39503;DHT22;26970;49.900;10.774;2022-08-19T02:04:10;19.60;99.90
39503;DHT22;26970;49.900;10.774;2022-08-19T02:06:36;19.50;99.90
39503;DHT22;26970;49.900;10.774;2022-08-19T02:09:03;19.50;99.90
39503;DHT22;26970;49.900;10.774;2022-08-19T02:11:32;19.50;99.90
39503;DHT22;26970;49.900;10.774;2022-08-19T02:14:03;19.50;99.90
39503;DHT22;26970;49.900;10.774;2022-08-19T02:16:30;19.50;99.90
39503;DHT22;26970;49.900;10.774;2022-08-19T02:18:56;19.40;99.90
39503;DHT22;26970;49.900;10.774;2022-08-19T02:21:22;19.50;99.90
39503;DHT22;26970;49.900;10.774;2022-08-19T02:23:49;19.50;99.90
39503;DHT22;26970;49.900;10.774;2022-08-19T02:26:16;19.50;99.90
39503;DHT22;26970;49.900;10.774;2022-08-19T02:28:41;19.50;99.90
39503;DHT22;26970;49.900;10.774;2022-08-19T02:31:19;19.50;99.90
39503;DHT22;26970;49.900;10.774;2022-08-19T02:33:46;19.40;99.90
39503;DHT22;26970;49.900;10.774;2022-08-19T02:36:13;19.40;99.90
39503;DHT22;26970;49.900;10.774;2022-08-19T02:38:39;19.30;99.90
39503;DHT22;26970;49.900;10.774;2022-08-19T02:41:14;19.30;99.90
39503;DHT22;26970;49.900;10.774;2022-08-19T02:43:40;19.30;99.90
39503;DHT22;26970;49.900;10.774;2022-08-19T02:46:27;19.30;99.90
39503;DHT22;26970;49.900;10.774;2022-08-19T02:48:56;19.30;99.90
39503;DHT22;26970;49.900;10.774;2022-08-19T02:51:25;19.30;99.90
39503;DHT22;26970;49.900;10.774;2022-08-19T02:53:51;19.30;99.90
39503;DHT22;26970;49.900;10.774;2022-08-19T02:56:18;19.20;99.90
39503;DHT22;26970;49.900;10.774;2022-08-19T02:58:44;19.10;99.90
39503;DHT22;26970;49.900;10.774;2022-08-19T03:01:10;19.10;99.90
39503;DHT22;26970;49.900;10.774;2022-08-19T03:03:37;19.30;99.90
39503;DHT22;26970;49.900;10.774;2022-08-19T03:06:10;19.30;99.90
39503;DHT22;26970;49.900;10.774;2022-08-19T03:08:39;19.20;99.90
39503;DHT22;26970;49.900;10.774;2022-08-19T03:11:05;19.20;99.90
39503;DHT22;26970;49.900;10.774;2022-08-19T03:13:31;19.30;99.90
39503;DHT22;26970;49.900;10.774;2022-08-19T03:15:57;19.30;99.90
39503;DHT22;26970;49.900;10.774;2022-08-19T03:18:22;19.30;99.90
39503;DHT22;26970;49.900;10.774;2022-08-19T03:20:49;19.30;99.90
39503;DHT22;26970;49.900;10.774;2022-08-19T03:23:16;19.30;99.90
39503;DHT22;26970;49.900;10.774;2022-08-19T03:25:47;19.30;99.90
39503;DHT22;26970;49.900;10.774;2022-08-19T03:28:15;19.20;99.90
39503;DHT22;26970;49.900;10.774;2022-08-19T03:30:42;19.20;99.90
39503;DHT22;26970;49.900;10.774;2022-08-19T03:33:10;19.30;99.90
39503;DHT22;26970;49.900;10.774;2022-08-19T03:35:37;19.20;99.90
39503;DHT22;26970;49.900;10.774;2022-08-19T03:38:04;19.20;99.90
39503;DHT22;26970;49.900;10.774;2022-08-19T03:40:30;19.30;99.90
39503;DHT22;26970;49.900;10.774;2022-08-19T03:43:00;19.30;99.90
39503;DHT22;26970;49.900;10.774;2022-08-19T03:45:26;19.30;99.90
39503;DHT22;26970;49.900;10.774;2022-08-19T03:47:52;19.30;99.90
39503;DHT22;26970;49.900;10.774;2022-08-19T03:50:18;19.20;99.90
39503;DHT22;26970;49.900;10.774;2022-08-19T03:52:50;19.20;99.90
39503;DHT22;26970;49.900;10.774;2022-08-19T03:55:17;19.20;99.90
39503;DHT22;26970;49.900;10.774;2022-08-19T03:57:43;19.10;99.90
39503;DHT22;26970;49.900;10.774;2022-08-19T04:00:11;19.10;99.90
39503;DHT22;26970;49.900;10.774;2022-08-19T04:02:37;19.00;99.90
39503;DHT22;26970;49.900;10.774;2022-08-19T04:05:02;19.00;99.90
39503;DHT22;26970;49.900;10.774;2022-08-19T04:07:28;19.00;99.90
39503;DHT22;26970;49.900;10.774;2022-08-19T04:09:53;19.00;99.90
39503;DHT22;26970;49.900;10.774;2022-08-19T04:12:19;18.90;99.90
39503;DHT22;26970;49.900;10.774;2022-08-19T04:14:46;18.90;99.90
39503;DHT22;26970;49.900;10.774;2022-08-19T04:17:12;18.90;99.90
39503;DHT22;26970;49.900;10.774;2022-08-19T04:19:39;19.00;99.90
39503;DHT22;26970;49.900;10.774;2022-08-19T04:22:05;19.00;99.90
39503;DHT22;26970;49.900;10.774;2022-08-19T04:24:34;18.90;99.90
39503;DHT22;26970;49.900;10.774;2022-08-19T04:27:01;18.90;99.90
39503;DHT22;26970;49.900;10.774;2022-08-19T04:29:27;18.80;99.90
39503;DHT22;26970;49.900;10.774;2022-08-19T04:31:55;18.90;99.90
39503;DHT22;26970;49.900;10.774;2022-08-19T04:34:24;18.90;99.90
39503;DHT22;26970;49.900;10.774;2022-08-19T04:36:50;19.00;99.90
39503;DHT22;26970;49.900;10.774;2022-08-19T04:39:19;19.00;99.90
39503;DHT22;26970;49.900;10.774;2022-08-19T04:41:46;18.90;99.90
39503;DHT22;26970;49.900;10.774;2022-08-19T04:44:34;18.90;99.90
39503;DHT22;26970;49.900;10.774;2022-08-19T04:47:01;18.90;99.90
39503;DHT22;26970;49.900;10.774;2022-08-19T04:49:27;18.90;99.90
39503;DHT22;26970;49.900;10.774;2022-08-19T04:51:54;18.90;99.90
39503;DHT22;26970;49.900;10.774;2022-08-19T04:54:21;18.90;99.90
39503;DHT22;26970;49.900;10.774;2022-08-19T04:56:49;18.90;99.90
39503;DHT22;26970;49.900;10.774;2022-08-19T04:59:15;18.90;99.90
39503;DHT22;26970;49.900;10.774;2022-08-19T05:01:42;18.80;99.90
39503;DHT22;26970;49.900;10.774;2022-08-19T05:04:08;18.90;99.90
39503;DHT22;26970;49.900;10.774;2022-08-19T05:06:35;18.90;99.90
39503;DHT22;26970;49.900;10.774;2022-08-19T05:09:03;18.90;99.90
39503;DHT22;26970;49.900;10.774;2022-08-19T05:11:33;19.00;99.90
39503;DHT22;26970;49.900;10.774;2022-08-19T05:13:59;19.00;99.90
39503;DHT22;26970;49.900;10.774;2022-08-19T05:16:26;19.10;99.90
39503;DHT22;26970;49.900;10.774;2022-08-19T05:18:52;19.10;99.90
39503;DHT22;26970;49.900;10.774;2022-08-19T05:21:37;19.10;99.90
39503;DHT22;26970;49.900;10.774;2022-08-19T05:24:22;19.10;99.90
39503;DHT22;26970;49.900;10.774;2022-08-19T05:26:50;19.10;99.90
39503;DHT22;26970;49.900;10.774;2022-08-19T05:29:19;19.20;99.90
39503;DHT22;26970;49.900;10.774;2022-08-19T05:31:46;19.40;99.90
39503;DHT22;26970;49.900;10.774;2022-08-19T05:34:12;19.40;99.90
39503;DHT22;26970;49.900;10.774;2022-08-19T05:36:42;19.50;99.90
39503;DHT22;26970;49.900;10.774;2022-08-19T05:39:11;19.60;99.90
39503;DHT22;26970;49.900;10.774;2022-08-19T05:41:41;19.60;99.90
39503;DHT22;26970;49.900;10.774;2022-08-19T05:44:07;19.60;99.90
39503;DHT22;26970;49.900;10.774;2022-08-19T05:46:38;19.50;99.90
39503;DHT22;26970;49.900;10.774;2022-08-19T05:49:05;19.70;99.90
39503;DHT22;26970;49.900;10.774;2022-08-19T05:51:33;19.70;99.90
39503;DHT22;26970;49.900;10.774;2022-08-19T05:54:00;19.70;99.90
39503;DHT22;26970;49.900;10.774;2022-08-19T05:56:26;19.80;99.90
39503;DHT22;26970;49.900;10.774;2022-08-19T05:58:52;19.70;99.90
39503;DHT22;26970;49.900;10.774;2022-08-19T06:01:19;19.80;99.90
39503;DHT22;26970;49.900;10.774;2022-08-19T06:03:45;19.90;99.90
39503;DHT22;26970;49.900;10.774;2022-08-19T06:06:12;20.00;99.90
39503;DHT22;26970;49.900;10.774;2022-08-19T06:08:39;20.00;99.90
39503;DHT22;26970;49.900;10.774;2022-08-19T06:13:44;19.90;99.90
39503;DHT22;26970;49.900;10.774;2022-08-19T06:16:12;19.80;99.90
39503;DHT22;26970;49.900;10.774;2022-08-19T06:18:37;19.70;99.90
39503;DHT22;26970;49.900;10.774;2022-08-19T06:21:03;19.70;99.90
39503;DHT22;26970;49.900;10.774;2022-08-19T06:23:30;19.70;99.90
39503;DHT22;26970;49.900;10.774;2022-08-19T06:25:56;19.70;99.90
39503;DHT22;26970;49.900;10.774;2022-08-19T06:28:21;19.60;99.90
39503;DHT22;26970;49.900;10.774;2022-08-19T06:30:49;19.50;99.90
39503;DHT22;26970;49.900;10.774;2022-08-19T06:33:15;19.50;99.90
39503;DHT22;26970;49.900;10.774;2022-08-19T06:35:41;19.40;99.90
39503;DHT22;26970;49.900;10.774;2022-08-19T06:38:07;19.40;99.90
39503;DHT22;26970;49.900;10.774;2022-08-19T06:40:34;19.40;99.90
39503;DHT22;26970;49.900;10.774;2022-08-19T06:43:00;19.50;99.90
39503;DHT22;26970;49.900;10.774;2022-08-19T06:45:27;19.40;99.90
39503;DHT22;26970;49.900;10.774;2022-08-19T06:47:53;19.20;99.90
39503;DHT22;26970;49.900;10.774;2022-08-19T06:50:23;19.10;99.90
39503;DHT22;26970;49.900;10.774;2022-08-19T06:52:48;19.00;99.90
39503;DHT22;26970;49.900;10.774;2022-08-19T06:55:14;18.90;99.90
39503;DHT22;26970;49.900;10.774;2022-08-19T06:57:41;18.80;99.90
39503;DHT22;26970;49.900;10.774;2022-08-19T07:00:09;18.80;99.90
39503;DHT22;26970;49.900;10.774;2022-08-19T07:02:42;18.80;99.90
39503;DHT22;26970;49.900;10.774;2022-08-19T07:05:08;18.80;99.90
39503;DHT22;26970;49.900;10.774;2022-08-19T07:07:34;18.80;99.90
39503;DHT22;26970;49.900;10.774;2022-08-19T07:10:00;18.80;99.90
39503;DHT22;26970;49.900;10.774;2022-08-19T07:12:30;18.70;99.90
39503;DHT22;26970;49.900;10.774;2022-08-19T07:14:58;18.80;99.90
39503;DHT22;26970;49.900;10.774;2022-08-19T07:17:24;18.80;99.90
39503;DHT22;26970;49.900;10.774;2022-08-19T07:19:49;18.80;99.90
39503;DHT22;26970;49.900;10.774;2022-08-19T07:22:15;18.90;99.90
39503;DHT22;26970;49.900;10.774;2022-08-19T07:24:41;18.90;99.90
39503;DHT22;26970;49.900;10.774;2022-08-19T07:27:07;19.00;99.90
39503;DHT22;26970;49.900;10.774;2022-08-19T07:29:34;19.00;99.90
39503;DHT22;26970;49.900;10.774;2022-08-19T07:32:01;19.00;99.90
39503;DHT22;26970;49.900;10.774;2022-08-19T07:34:28;19.00;99.90
39503;DHT22;26970;49.900;10.774;2022-08-19T07:36:55;19.00;99.90
39503;DHT22;26970;49.900;10.774;2022-08-19T07:39:27;18.90;99.90
39503;DHT22;26970;49.900;10.774;2022-08-19T07:41:54;19.10;99.90
39503;DHT22;26970;49.900;10.774;2022-08-19T07:44:20;19.10;99.90
39503;DHT22;26970;49.900;10.774;2022-08-19T07:46:49;19.20;99.90
39503;DHT22;26970;49.900;10.774;2022-08-19T07:49:16;19.20;99.90
39503;DHT22;26970;49.900;10.774;2022-08-19T07:51:47;19.30;99.90
39503;DHT22;26970;49.900;10.774;2022-08-19T07:54:13;19.30;99.90
39503;DHT22;26970;49.900;10.774;2022-08-19T07:56:38;19.40;99.90
39503;DHT22;26970;49.900;10.774;2022-08-19T07:59:04;19.30;99.90
39503;DHT22;26970;49.900;10.774;2022-08-19T08:01:31;19.30;99.90
39503;DHT22;26970;49.900;10.774;2022-08-19T08:03:57;19.30;99.90
39503;DHT22;26970;49.900;10.774;2022-08-19T08:06:42;19.30;99.90
39503;DHT22;26970;49.900;10.774;2022-08-19T08:09:33;19.30;99.90
39503;DHT22;26970;49.900;10.774;2022-08-19T08:12:16;19.40;99.90
39503;DHT22;26970;49.900;10.774;2022-08-19T08:14:45;19.50;99.90
39503;DHT22;26970;49.900;10.774;2022-08-19T08:17:13;19.50;99.90
39503;DHT22;26970;49.900;10.774;2022-08-19T08:19:39;19.50;99.90
39503;DHT22;26970;49.900;10.774;2022-08-19T08:22:08;19.50;99.90
39503;DHT22;26970;49.900;10.774;2022-08-19T08:24:35;19.60;99.90
39503;DHT22;26970;49.900;10.774;2022-08-19T08:27:01;19.50;99.90
39503;DHT22;26970;49.900;10.774;2022-08-19T08:29:28;19.50;99.90
39503;DHT22;26970;49.900;10.774;2022-08-19T08:31:54;19.40;99.90
39503;DHT22;26970;49.900;10.774;2022-08-19T08:34:20;19.40;99.90
39503;DHT22;26970;49.900;10.774;2022-08-19T08:36:46;19.30;99.90
39503;DHT22;26970;49.900;10.774;2022-08-19T08:39:15;19.20;99.90
39503;DHT22;26970;49.900;10.774;2022-08-19T08:42:04;19.30;99.90
39503;DHT22;26970;49.900;10.774;2022-08-19T08:44:43;19.30;99.90
39503;DHT22;26970;49.900;10.774;2022-08-19T08:47:14;19.20;99.90
39503;DHT22;26970;49.900;10.774;2022-08-19T08:49:59;19.20;99.90
39503;DHT22;26970;49.900;10.774;2022-08-19T08:52:36;19.40;99.90
39503;DHT22;26970;49.900;10.774;2022-08-19T08:55:07;19.50;99.90
39503;DHT22;26970;49.900;10.774;2022-08-19T09:00:15;20.00;99.90
39503;DHT22;26970;49.900;10.774;2022-08-19T09:02:42;20.40;99.90
39503;DHT22;26970;49.900;10.774;2022-08-19T09:05:09;20.30;99.90
39503;DHT22;26970;49.900;10.774;2022-08-19T09:08:04;20.30;99.90
39503;DHT22;26970;49.900;10.774;2022-08-19T09:10:43;20.30;99.90
39503;DHT22;26970;49.900;10.774;2022-08-19T09:13:24;20.20;99.90
39503;DHT22;26970;49.900;10.774;2022-08-19T09:15:56;20.30;99.90
39503;DHT22;26970;49.900;10.774;2022-08-19T09:18:23;20.00;99.90
39503;DHT22;26970;49.900;10.774;2022-08-19T09:20:48;20.10;99.90
39503;DHT22;26970;49.900;10.774;2022-08-19T09:23:15;20.30;99.90
39503;DHT22;26970;49.900;10.774;2022-08-19T09:25:40;20.30;99.90
39503;DHT22;26970;49.900;10.774;2022-08-19T09:28:07;20.30;99.90
39503;DHT22;26970;49.900;10.774;2022-08-19T09:30:38;20.30;99.90
39503;DHT22;26970;49.900;10.774;2022-08-19T09:33:04;20.20;99.90
39503;DHT22;26970;49.900;10.774;2022-08-19T09:35:30;19.90;99.90
39503;DHT22;26970;49.900;10.774;2022-08-19T09:37:58;20.00;99.90
39503;DHT22;26970;49.900;10.774;2022-08-19T09:40:24;20.10;99.90
39503;DHT22;26970;49.900;10.774;2022-08-19T09:42:51;20.00;99.90
39503;DHT22;26970;49.900;10.774;2022-08-19T09:45:19;19.80;99.90
39503;DHT22;26970;49.900;10.774;2022-08-19T09:47:52;19.90;99.90
39503;DHT22;26970;49.900;10.774;2022-08-19T09:50:18;19.80;99.90
39503;DHT22;26970;49.900;10.774;2022-08-19T09:52:45;19.80;99.90
39503;DHT22;26970;49.900;10.774;2022-08-19T09:55:11;19.80;99.90
39503;DHT22;26970;49.900;10.774;2022-08-19T09:57:38;19.90;99.90
39503;DHT22;26970;49.900;10.774;2022-08-19T10:00:05;19.80;99.90
39503;DHT22;26970;49.900;10.774;2022-08-19T10:02:32;19.90;99.90
39503;DHT22;26970;49.900;10.774;2022-08-19T10:04:58;19.90;99.90
39503;DHT22;26970;49.900;10.774;2022-08-19T10:07:42;19.90;99.90
39503;DHT22;26970;49.900;10.774;2022-08-19T10:10:08;19.80;99.90
39503;DHT22;26970;49.900;10.774;2022-08-19T10:12:35;19.80;99.90
39503;DHT22;26970;49.900;10.774;2022-08-19T10:15:01;19.90;99.90
39503;DHT22;26970;49.900;10.774;2022-08-19T10:17:27;20.00;99.90
39503;DHT22;26970;49.900;10.774;2022-08-19T10:19:53;19.90;99.90
39503;DHT22;26970;49.900;10.774;2022-08-19T10:22:19;19.90;99.90
39503;DHT22;26970;49.900;10.774;2022-08-19T10:24:47;20.00;99.90
39503;DHT22;26970;49.900;10.774;2022-08-19T10:27:14;19.90;99.90
39503;DHT22;26970;49.900;10.774;2022-08-19T10:29:41;19.90;99.90
39503;DHT22;26970;49.900;10.774;2022-08-19T10:32:08;19.90;99.90
39503;DHT22;26970;49.900;10.774;2022-08-19T10:34:38;20.00;99.90
39503;DHT22;26970;49.900;10.774;2022-08-19T10:37:05;20.00;99.90
39503;DHT22;26970;49.900;10.774;2022-08-19T10:39:35;20.00;99.90
39503;DHT22;26970;49.900;10.774;2022-08-19T10:42:10;20.10;99.90
39503;DHT22;26970;49.900;10.774;2022-08-19T10:44:36;20.30;99.90
39503;DHT22;26970;49.900;10.774;2022-08-19T10:47:02;20.40;99.90
39503;DHT22;26970;49.900;10.774;2022-08-19T10:49:29;20.50;99.90
39503;DHT22;26970;49.900;10.774;2022-08-19T10:51:55;20.40;99.90
39503;DHT22;26970;49.900;10.774;2022-08-19T10:54:40;20.50;99.90
39503;DHT22;26970;49.900;10.774;2022-08-19T10:57:24;20.40;99.90
39503;DHT22;26970;49.900;10.774;2022-08-19T10:59:55;20.40;99.90
39503;DHT22;26970;49.900;10.774;2022-08-19T11:02:21;20.50;99.90
39503;DHT22;26970;49.900;10.774;2022-08-19T11:04:47;20.50;99.90
39503;DHT22;26970;49.900;10.774;2022-08-19T11:07:15;20.60;99.90
39503;DHT22;26970;49.900;10.774;2022-08-19T11:09:42;20.60;99.90
39503;DHT22;26970;49.900;10.774;2022-08-19T11:12:08;20.50;99.90
39503;DHT22;26970;49.900;10.774;2022-08-19T11:14:35;20.40;99.90
39503;DHT22;26970;49.900;10.774;2022-08-19T11:17:02;20.50;99.90
39503;DHT22;26970;49.900;10.774;2022-08-19T11:19:28;20.40;99.90
39503;DHT22;26970;49.900;10.774;2022-08-19T11:21:53;20.50;99.90
39503;DHT22;26970;49.900;10.774;2022-08-19T11:24:24;20.60;99.90
39503;DHT22;26970;49.900;10.774;2022-08-19T11:26:52;20.70;99.90
39503;DHT22;26970;49.900;10.774;2022-08-19T11:29:20;20.80;99.90
39503;DHT22;26970;49.900;10.774;2022-08-19T11:31:48;20.80;99.90
39503;DHT22;26970;49.900;10.774;2022-08-19T11:34:20;20.80;99.90
39503;DHT22;26970;49.900;10.774;2022-08-19T11:36:47;20.80;99.90
39503;DHT22;26970;49.900;10.774;2022-08-19T11:39:15;20.90;99.90
39503;DHT22;26970;49.900;10.774;2022-08-19T11:41:41;20.90;99.90
39503;DHT22;26970;49.900;10.774;2022-08-19T11:44:06;21.10;99.90
39503;DHT22;26970;49.900;10.774;2022-08-19T11:46:37;20.80;99.90
39503;DHT22;26970;49.900;10.774;2022-08-19T11:49:04;20.70;99.90
39503;DHT22;26970;49.900;10.774;2022-08-19T11:51:31;20.90;99.90
39503;DHT22;26970;49.900;10.774;2022-08-19T11:53:58;21.00;99.90
39503;DHT22;26970;49.900;10.774;2022-08-19T11:56:24;20.90;99.90
39503;DHT22;26970;49.900;10.774;2022-08-19T11:58:51;20.90;99.90
39503;DHT22;26970;49.900;10.774;2022-08-19T12:01:19;20.90;99.90
39503;DHT22;26970;49.900;10.774;2022-08-19T12:03:46;21.00;99.90
39503;DHT22;26970;49.900;10.774;2022-08-19T12:06:16;21.00;99.90
39503;DHT22;26970;49.900;10.774;2022-08-19T12:08:42;21.10;99.90
39503;DHT22;26970;49.900;10.774;2022-08-19T12:11:09;21.20;99.90
39503;DHT22;26970;49.900;10.774;2022-08-19T12:13:36;21.30;99.90
39503;DHT22;26970;49.900;10.774;2022-08-19T12:16:09;21.30;99.90
39503;DHT22;26970;49.900;10.774;2022-08-19T12:18:37;21.30;99.90
39503;DHT22;26970;49.900;10.774;2022-08-19T12:21:03;21.30;99.90
39503;DHT22;26970;49.900;10.774;2022-08-19T12:23:29;21.40;99.90
39503;DHT22;26970;49.900;10.774;2022-08-19T12:25:55;21.40;99.90
39503;DHT22;26970;49.900;10.774;2022-08-19T12:28:24;21.40;99.90
39503;DHT22;26970;49.900;10.774;2022-08-19T12:30:50;21.30;99.90
39503;DHT22;26970;49.900;10.774;2022-08-19T12:33:17;21.40;99.90
39503;DHT22;26970;49.900;10.774;2022-08-19T12:35:44;21.40;99.90
39503;DHT22;26970;49.900;10.774;2022-08-19T12:38:10;21.50;99.90
39503;DHT22;26970;49.900;10.774;2022-08-19T12:40:36;21.40;99.90
39503;DHT22;26970;49.900;10.774;2022-08-19T12:43:03;21.50;99.90
39503;DHT22;26970;49.900;10.774;2022-08-19T12:45:29;21.50;99.90
39503;DHT22;26970;49.900;10.774;2022-08-19T12:47:55;21.50;99.90
39503;DHT22;26970;49.900;10.774;2022-08-19T12:50:20;21.50;99.90
39503;DHT22;26970;49.900;10.774;2022-08-19T12:52:46;21.60;99.90
39503;DHT22;26970;49.900;10.774;2022-08-19T12:55:12;21.50;99.90
39503;DHT22;26970;49.900;10.774;2022-08-19T12:57:38;21.50;99.90
39503;DHT22;26970;49.900;10.774;2022-08-19T13:02:38;21.40;99.90
39503;DHT22;26970;49.900;10.774;2022-08-19T13:05:05;21.40;99.90
39503;DHT22;26970;49.900;10.774;2022-08-19T13:07:33;21.30;99.90
39503;DHT22;26970;49.900;10.774;2022-08-19T13:09:59;21.30;99.90
39503;DHT22;26970;49.900;10.774;2022-08-19T13:12:25;21.30;99.90
39503;DHT22;26970;49.900;10.774;2022-08-19T13:14:52;21.20;99.90
39503;DHT22;26970;49.900;10.774;2022-08-19T13:17:18;21.10;99.90
39503;DHT22;26970;49.900;10.774;2022-08-19T13:19:43;21.00;99.90
39503;DHT22;26970;49.900;10.774;2022-08-19T13:22:09;21.00;99.90
39503;DHT22;26970;49.900;10.774;2022-08-19T13:24:34;20.90;99.90
39503;DHT22;26970;49.900;10.774;2022-08-19T13:27:01;20.90;99.90
39503;DHT22;26970;49.900;10.774;2022-08-19T13:29:27;20.90;99.90
39503;DHT22;26970;49.900;10.774;2022-08-19T13:32:11;21.00;99.90
39503;DHT22;26970;49.900;10.774;2022-08-19T13:34:55;21.00;99.90
39503;DHT22;26970;49.900;10.774;2022-08-19T13:37:21;21.00;99.90
39503;DHT22;26970;49.900;10.774;2022-08-19T13:40:18;21.10;99.90
39503;DHT22;26970;49.900;10.774;2022-08-19T13:42:49;21.10;99.90
39503;DHT22;26970;49.900;10.774;2022-08-19T13:45:16;21.10;99.90
39503;DHT22;26970;49.900;10.774;2022-08-19T13:47:45;21.10;99.90
39503;DHT22;26970;49.900;10.774;2022-08-19T13:50:14;21.20;99.90
39503;DHT22;26970;49.900;10.774;2022-08-19T13:52:40;21.10;99.90
39503;DHT22;26970;49.900;10.774;2022-08-19T13:55:07;21.10;99.90
39503;DHT22;26970;49.900;10.774;2022-08-19T13:57:33;21.00;99.90
39503;DHT22;26970;49.900;10.774;2022-08-19T13:59:58;21.00;99.90
39503;DHT22;26970;49.900;10.774;2022-08-19T14:02:25;20.90;99.90
39503;DHT22;26970;49.900;10.774;2022-08-19T14:04:51;20.90;99.90
39503;DHT22;26970;49.900;10.774;2022-08-19T14:07:17;20.80;99.90
39503;DHT22;26970;49.900;10.774;2022-08-19T14:09:43;20.80;99.90
39503;DHT22;26970;49.900;10.774;2022-08-19T14:12:08;20.80;99.90
39503;DHT22;26970;49.900;10.774;2022-08-19T14:14:38;20.80;99.90
39503;DHT22;26970;49.900;10.774;2022-08-19T14:17:07;20.80;99.90
39503;DHT22;26970;49.900;10.774;2022-08-19T14:19:33;20.90;99.90
39503;DHT22;26970;49.900;10.774;2022-08-19T14:21:59;20.90;99.90
39503;DHT22;26970;49.900;10.774;2022-08-19T14:24:24;20.90;99.90
39503;DHT22;26970;49.900;10.774;2022-08-19T14:26:50;20.90;99.90
39503;DHT22;26970;49.900;10.774;2022-08-19T14:29:16;20.80;99.90
39503;DHT22;26970;49.900;10.774;2022-08-19T14:31:41;20.80;99.90
39503;DHT22;26970;49.900;10.774;2022-08-19T14:34:09;20.80;99.90
39503;DHT22;26970;49.900;10.774;2022-08-19T14:36:36;20.90;99.90
39503;DHT22;26970;49.900;10.774;2022-08-19T14:39:03;20.90;99.90
39503;DHT22;26970;49.900;10.774;2022-08-19T14:41:29;20.80;99.90
39503;DHT22;26970;49.900;10.774;2022-08-19T14:43:56;20.70;99.90
39503;DHT22;26970;49.900;10.774;2022-08-19T14:46:24;20.70;99.90
39503;DHT22;26970;49.900;10.774;2022-08-19T14:48:51;20.70;99.90
39503;DHT22;26970;49.900;10.774;2022-08-19T14:51:17;20.70;99.90
39503;DHT22;26970;49.900;10.774;2022-08-19T14:53:43;20.70;99.90
39503;DHT22;26970;49.900;10.774;2022-08-19T14:56:15;20.80;99.90
39503;DHT22;26970;49.900;10.774;2022-08-19T14:58:42;20.90;99.90
39503;DHT22;26970;49.900;10.774;2022-08-19T15:01:09;21.00;99.90
39503;DHT22;26970;49.900;10.774;2022-08-19T15:03:35;21.00;99.90
39503;DHT22;26970;49.900;10.774;2022-08-19T15:06:03;21.00;99.90
39503;DHT22;26970;49.900;10.774;2022-08-19T15:08:30;21.00;99.90
39503;DHT22;26970;49.900;10.774;2022-08-19T15:10:57;21.00;99.90
39503;DHT22;26970;49.900;10.774;2022-08-19T15:13:23;21.00;99.90
39503;DHT22;26970;49.900;10.774;2022-08-19T15:15:49;21.10;99.90
39503;DHT22;26970;49.900;10.774;2022-08-19T15:18:17;21.20;99.90
39503;DHT22;26970;49.900;10.774;2022-08-19T15:20:43;21.20;99.90
39503;DHT22;26970;49.900;10.774;2022-08-19T15:23:09;21.30;99.90
39503;DHT22;26970;49.900;10.774;2022-08-19T15:25:36;21.30;99.90
39503;DHT22;26970;49.900;10.774;2022-08-19T15:28:01;21.20;99.90
39503;DHT22;26970;49.900;10.774;2022-08-19T15:30:28;21.20;99.90